Terminal Aerodrome Forecast
Issued by NWS

Home | Current Version | Previous Version | Text Only | Print | Product List | Glossary On
Versions: 1 2 3 4 5 6 7 8 9 10 11 12 13 14 15 16 17 18 19 20 21 22 23 24 25 26 27 28 29
000
FTUS45 KBYZ 271138
TAFLVM
TAF
KLVM 271138Z 2712/2812 27027G39KT P6SM SKC
     FM271500 27016KT P6SM BKN100
     FM272000 23022G34KT P6SM BKN080
     FM280100 23029G39KT P6SM VCSH BKN050=

USA.gov is the U.S. government's official web portal to all federal, state and local government web resources and services.